Time;durP1;ratioP1;P1;durP2;ratioP2;P2;SDS_P1;SDS_P2;PMS_P1;PMS_P2;Temp;Humidity;BMP_temperature;BMP_pressure;BME280_temperature;BME280_humidity;BME280_pressure;Samples;Min_cycle;Max_cycle;Signal;HPM_P1;HPM_P2
2023/03/07 00:00:34;;;;;;;2.65;2.45;;;;;;;;;;4497467;28;20048;-60
2023/03/07 00:02:48;;;;;;;2.67;2.47;;;;;;;;;;4500050;28;20036;-60
2023/03/07 00:04:59;;;;;;;2.67;2.30;;;;;;;;;;4497487;28;20030;-61
2023/03/07 00:07:09;;;;;;;2.58;2.38;;;;;;;;;;4500200;28;20380;-60
2023/03/07 00:09:19;;;;;;;2.50;2.30;;;;;;;;;;4499941;28;20056;-60
2023/03/07 00:11:30;;;;;;;2.30;2.10;;;;;;;;;;4498969;28;20046;-64
2023/03/07 00:13:40;;;;;;;2.40;2.20;;;;;;;;;;4498077;28;20041;-60
2023/03/07 00:15:50;;;;;;;2.33;2.13;;;;;;;;;;4499162;28;20453;-61
2023/03/07 00:18:00;;;;;;;2.30;2.10;;;;;;;;;;4497774;28;20843;-62
2023/03/07 00:20:13;;;;;;;2.33;2.13;;;;;;;;;;4498092;28;20041;-60
2023/03/07 00:22:23;;;;;;;2.17;1.98;;;;;;;;;;4499200;28;20814;-59
2023/03/07 00:24:34;;;;;;;2.30;2.10;;;;;;;;;;4497840;28;20038;-60
2023/03/07 00:26:44;;;;;;;2.45;2.25;;;;;;;;;;4496889;28;20046;-60
2023/03/07 00:28:54;;;;;;;2.10;1.90;;;;;;;;;;4497968;28;20042;-60
2023/03/07 00:31:07;;;;;;;2.13;1.92;;;;;;;;;;4500893;28;20049;-60
2023/03/07 00:33:17;;;;;;;1.90;1.80;;;;;;;;;;4500027;28;20022;-60
2023/03/07 00:35:27;;;;;;;2.10;1.90;;;;;;;;;;4501939;28;20095;-60
2023/03/07 00:37:37;;;;;;;2.00;1.80;;;;;;;;;;4498838;28;20038;-60
2023/03/07 00:39:48;;;;;;;2.22;2.03;;;;;;;;;;4498767;28;20034;-60
2023/03/07 00:41:58;;;;;;;2.28;2.08;;;;;;;;;;4495968;28;20026;-59
2023/03/07 00:44:08;;;;;;;2.28;2.08;;;;;;;;;;4497803;28;20045;-60
2023/03/07 00:46:20;;;;;;;2.30;2.10;;;;;;;;;;4493884;28;20679;-60
2023/03/07 00:48:32;;;;;;;2.10;1.90;;;;;;;;;;4495407;28;20038;-60
2023/03/07 00:50:42;;;;;;;2.08;1.88;;;;;;;;;;4489871;28;20172;-59
2023/03/07 00:52:53;;;;;;;2.15;1.95;;;;;;;;;;4496002;28;20124;-61
2023/03/07 00:55:03;;;;;;;1.90;1.70;;;;;;;;;;4498098;28;20030;-60
2023/03/07 00:57:13;;;;;;;1.58;1.48;;;;;;;;;;4501296;28;20034;-59
2023/03/07 00:59:24;;;;;;;1.70;1.60;;;;;;;;;;4497646;28;20034;-60
2023/03/07 01:01:35;;;;;;;1.73;1.63;;;;;;;;;;4500438;28;20040;-60
2023/03/07 01:03:48;;;;;;;1.92;1.80;;;;;;;;;;4500596;28;20162;-60
2023/03/07 01:06:03;;;;;;;1.52;1.42;;;;;;;;;;4501925;28;20046;-60
2023/03/07 01:08:14;;;;;;;1.75;1.65;;;;;;;;;;4497622;28;20104;-60
2023/03/07 01:10:26;;;;;;;1.63;1.52;;;;;;;;;;4505498;28;20550;-60
2023/03/07 01:12:37;;;;;;;1.50;1.40;;;;;;;;;;4498878;28;20026;-59
2023/03/07 01:14:51;;;;;;;1.48;1.38;;;;;;;;;;4497240;28;20034;-60
2023/03/07 01:17:01;;;;;;;1.40;1.30;;;;;;;;;;4488894;28;20605;-60
2023/03/07 01:19:12;;;;;;;1.50;1.40;;;;;;;;;;4517583;28;20037;-60
2023/03/07 01:21:34;;;;;;;1.58;1.42;;;;;;;;;;4502054;28;21015;-60
2023/03/07 01:23:46;;;;;;;1.40;1.30;;;;;;;;;;4495633;28;20046;-60
2023/03/07 01:25:57;;;;;;;1.48;1.38;;;;;;;;;;4501030;28;20050;-60
2023/03/07 01:28:08;;;;;;;1.30;1.20;;;;;;;;;;4501089;28;20045;-60
2023/03/07 01:30:18;;;;;;;1.35;1.25;;;;;;;;;;4498919;28;20197;-60
2023/03/07 01:32:29;;;;;;;1.20;1.10;;;;;;;;;;4499144;28;20030;-59
2023/03/07 01:34:39;;;;;;;1.20;1.10;;;;;;;;;;4496222;28;20030;-60
2023/03/07 01:36:50;;;;;;;1.20;1.10;;;;;;;;;;4498723;28;20560;-60
2023/03/07 01:39:05;;;;;;;1.40;1.30;;;;;;;;;;4483929;28;20361;-60
2023/03/07 01:41:16;;;;;;;1.27;1.15;;;;;;;;;;4504888;28;20038;-61
2023/03/07 01:43:32;;;;;;;1.20;1.10;;;;;;;;;;4500569;28;20041;-59
2023/03/07 01:46:09;;;;;;;1.20;1.10;;;;;;;;;;4497211;28;20096;-60
2023/03/07 01:48:20;;;;;;;1.10;1.00;;;;;;;;;;4488913;28;20041;-62
2023/03/07 01:50:32;;;;;;;1.20;1.10;;;;;;;;;;4487893;28;20038;-60
2023/03/07 01:52:46;;;;;;;1.20;1.10;;;;;;;;;;4498835;28;20038;-60
2023/03/07 01:55:12;;;;;;;1.25;1.15;;;;;;;;;;4498682;28;20108;-60
2023/03/07 01:57:27;;;;;;;1.10;1.00;;;;;;;;;;4496144;28;20042;-60
2023/03/07 01:59:40;;;;;;;1.20;1.10;;;;;;;;;;4489237;28;20031;-61
2023/03/07 02:01:51;;;;;;;1.17;1.08;;;;;;;;;;4497725;28;20042;-60
2023/03/07 02:04:07;;;;;;;0.95;0.95;;;;;;;;;;4496875;28;20026;-61
2023/03/07 02:06:17;;;;;;;1.10;1.00;;;;;;;;;;4505286;28;20068;-62
2023/03/07 02:08:29;;;;;;;1.10;1.00;;;;;;;;;;4499841;28;20108;-61
2023/03/07 02:10:40;;;;;;;1.00;1.00;;;;;;;;;;4487920;28;20038;-60
2023/03/07 02:12:51;;;;;;;1.30;1.20;;;;;;;;;;4498139;28;20467;-61
2023/03/07 02:15:02;;;;;;;1.15;1.05;;;;;;;;;;4504171;28;20037;-61
2023/03/07 02:17:13;;;;;;;1.17;1.08;;;;;;;;;;4500655;28;20096;-60
2023/03/07 02:19:42;;;;;;;1.30;1.20;;;;;;;;;;4497528;28;20040;-60
2023/03/07 02:21:55;;;;;;;0.90;0.90;;;;;;;;;;4497473;28;20861;-61
2023/03/07 02:24:09;;;;;;;0.80;0.80;;;;;;;;;;4499912;28;20577;-61
2023/03/07 02:26:40;;;;;;;0.90;0.90;;;;;;;;;;4499190;28;20072;-60
2023/03/07 02:28:51;;;;;;;0.98;0.88;;;;;;;;;;4512310;28;20589;-61
2023/03/07 02:31:03;;;;;;;0.90;0.90;;;;;;;;;;4487491;28;20045;-60
2023/03/07 02:33:16;;;;;;;0.85;0.85;;;;;;;;;;4505091;28;21105;-60
2023/03/07 02:35:27;;;;;;;0.90;0.90;;;;;;;;;;4497838;28;20057;-60
2023/03/07 02:37:44;;;;;;;0.70;0.70;;;;;;;;;;4501749;28;20802;-60
2023/03/07 02:39:56;;;;;;;1.10;0.90;;;;;;;;;;4497352;28;20029;-60
2023/03/07 02:42:09;;;;;;;0.70;0.70;;;;;;;;;;4499343;28;20039;-61
2023/03/07 02:44:28;;;;;;;0.88;0.88;;;;;;;;;;4494039;28;20130;-61
2023/03/07 02:46:38;;;;;;;0.70;0.70;;;;;;;;;;4496200;28;20659;-60
2023/03/07 02:48:49;;;;;;;0.70;0.70;;;;;;;;;;4500181;28;20363;-60
2023/03/07 02:51:00;;;;;;;0.70;0.70;;;;;;;;;;4497461;28;20038;-59
2023/03/07 02:53:10;;;;;;;0.80;0.80;;;;;;;;;;4471529;28;20054;-60
2023/03/07 02:55:20;;;;;;;0.70;0.70;;;;;;;;;;4500245;28;20135;-61
2023/03/07 02:57:38;;;;;;;0.80;0.80;;;;;;;;;;4481450;28;20855;-61
2023/03/07 02:59:49;;;;;;;0.60;0.60;;;;;;;;;;4496501;28;20042;-60
2023/03/07 03:02:00;;;;;;;0.70;0.70;;;;;;;;;;4499066;28;20061;-61
2023/03/07 03:04:10;;;;;;;0.65;0.65;;;;;;;;;;4497968;28;20546;-61
2023/03/07 03:06:20;;;;;;;0.63;0.63;;;;;;;;;;4501280;28;20113;-61
2023/03/07 03:08:31;;;;;;;0.70;0.70;;;;;;;;;;4514162;28;20037;-60
2023/03/07 03:10:41;;;;;;;0.90;0.82;;;;;;;;;;4498796;28;20401;-60
2023/03/07 03:12:52;;;;;;;0.80;0.80;;;;;;;;;;4512858;28;20115;-62
2023/03/07 03:15:03;;;;;;;0.60;0.60;;;;;;;;;;4499933;28;20069;-61
2023/03/07 03:17:13;;;;;;;0.60;0.60;;;;;;;;;;4505174;28;20045;-61
2023/03/07 03:19:23;;;;;;;0.70;0.70;;;;;;;;;;4500950;28;20038;-61
2023/03/07 03:21:34;;;;;;;0.70;0.70;;;;;;;;;;4502375;28;20134;-61
2023/03/07 03:23:44;;;;;;;0.80;0.80;;;;;;;;;;4503494;28;20056;-60
2023/03/07 03:26:03;;;;;;;0.60;0.60;;;;;;;;;;4490755;28;20042;-61
2023/03/07 03:28:16;;;;;;;0.70;0.70;;;;;;;;;;4498992;28;20033;-60
2023/03/07 03:30:27;;;;;;;0.70;0.70;;;;;;;;;;4501438;28;20041;-60
2023/03/07 03:32:38;;;;;;;0.70;0.70;;;;;;;;;;4515306;28;20652;-60
2023/03/07 03:34:49;;;;;;;0.80;0.80;;;;;;;;;;4486198;28;20064;-60
2023/03/07 03:36:59;;;;;;;0.70;0.70;;;;;;;;;;4502812;28;20096;-61
2023/03/07 03:39:10;;;;;;;0.60;0.60;;;;;;;;;;4500315;28;20041;-61
2023/03/07 03:41:24;;;;;;;0.80;0.80;;;;;;;;;;4501641;28;20174;-61
2023/03/07 03:43:34;;;;;;;0.70;0.70;;;;;;;;;;4516192;28;20033;-61
2023/03/07 03:45:52;;;;;;;0.80;0.80;;;;;;;;;;4501973;28;20041;-61
2023/03/07 03:48:02;;;;;;;0.77;0.77;;;;;;;;;;4498970;28;20041;-61
2023/03/07 03:50:13;;;;;;;0.80;0.80;;;;;;;;;;4499793;28;20029;-61
2023/03/07 03:52:23;;;;;;;1.08;0.98;;;;;;;;;;4504076;28;20034;-60
2023/03/07 03:54:34;;;;;;;0.70;0.70;;;;;;;;;;4501492;28;20097;-61
2023/03/07 03:56:44;;;;;;;1.00;1.00;;;;;;;;;;4505424;28;20466;-61
2023/03/07 03:58:56;;;;;;;0.70;0.70;;;;;;;;;;4479733;28;20361;-61
2023/03/07 04:01:10;;;;;;;0.80;0.80;;;;;;;;;;4490447;28;20552;-60
2023/03/07 04:03:21;;;;;;;0.73;0.73;;;;;;;;;;4489507;28;20038;-60
2023/03/07 04:05:32;;;;;;;0.88;0.80;;;;;;;;;;4496769;28;20475;-61
2023/03/07 04:07:42;;;;;;;0.80;0.80;;;;;;;;;;4497245;28;20072;-60
2023/03/07 04:09:52;;;;;;;0.68;0.68;;;;;;;;;;4502022;28;20045;-60
2023/03/07 04:12:03;;;;;;;0.70;0.70;;;;;;;;;;4499017;28;20038;-60
2023/03/07 04:14:13;;;;;;;0.80;0.80;;;;;;;;;;4502863;28;20038;-60
2023/03/07 04:16:24;;;;;;;0.70;0.70;;;;;;;;;;4503255;28;20121;-61
2023/03/07 04:18:35;;;;;;;0.60;0.60;;;;;;;;;;4499813;28;20474;-61
2023/03/07 04:20:46;;;;;;;0.60;0.60;;;;;;;;;;4498586;28;20034;-61
2023/03/07 04:22:56;;;;;;;0.60;0.60;;;;;;;;;;4497418;28;20038;-60
2023/03/07 04:25:06;;;;;;;0.57;0.57;;;;;;;;;;4500503;28;20710;-60
2023/03/07 04:27:17;;;;;;;0.80;0.80;;;;;;;;;;4501947;28;20091;-60
2023/03/07 04:29:29;;;;;;;0.65;0.65;;;;;;;;;;4501897;28;20774;-61
2023/03/07 04:31:45;;;;;;;0.70;0.70;;;;;;;;;;4497074;28;20071;-61
2023/03/07 04:33:56;;;;;;;0.70;0.70;;;;;;;;;;4497624;28;20068;-60
2023/03/07 04:36:07;;;;;;;0.60;0.60;;;;;;;;;;4501582;28;20038;-61
2023/03/07 04:38:17;;;;;;;0.65;0.65;;;;;;;;;;4499930;28;20474;-61
2023/03/07 04:40:27;;;;;;;0.60;0.60;;;;;;;;;;4514549;28;20668;-61
2023/03/07 04:42:38;;;;;;;0.50;0.50;;;;;;;;;;4498747;28;20373;-61
2023/03/07 04:44:48;;;;;;;0.68;0.68;;;;;;;;;;4498840;28;20065;-61
2023/03/07 04:46:58;;;;;;;0.60;0.60;;;;;;;;;;4495702;28;20105;-60
2023/03/07 04:49:09;;;;;;;0.50;0.50;;;;;;;;;;4499049;28;20160;-61
2023/03/07 04:51:19;;;;;;;0.40;0.40;;;;;;;;;;4501446;28;20113;-61
2023/03/07 04:53:32;;;;;;;0.50;0.50;;;;;;;;;;4500811;28;20120;-61
2023/03/07 04:55:42;;;;;;;0.50;0.50;;;;;;;;;;4497551;28;20030;-61
2023/03/07 04:57:52;;;;;;;0.50;0.50;;;;;;;;;;4496706;28;20058;-61
2023/03/07 05:00:08;;;;;;;0.40;0.40;;;;;;;;;;4501484;28;20049;-61
2023/03/07 05:02:18;;;;;;;0.40;0.40;;;;;;;;;;4500148;28;20717;-61
2023/03/07 05:04:28;;;;;;;0.40;0.40;;;;;;;;;;4500322;28;20121;-61
2023/03/07 05:06:39;;;;;;;0.57;0.57;;;;;;;;;;4501947;28;20074;-60
2023/03/07 05:08:49;;;;;;;0.40;0.40;;;;;;;;;;4501471;28;20080;-60
2023/03/07 05:11:00;;;;;;;0.40;0.40;;;;;;;;;;4490326;28;20029;-61
2023/03/07 05:13:10;;;;;;;0.30;0.30;;;;;;;;;;4488618;28;20647;-61
2023/03/07 05:15:21;;;;;;;0.55;0.40;;;;;;;;;;4512593;28;20081;-60
2023/03/07 05:17:31;;;;;;;0.40;0.40;;;;;;;;;;4513244;28;20033;-60
2023/03/07 05:19:42;;;;;;;0.40;0.40;;;;;;;;;;4500466;28;20045;-60
2023/03/07 05:21:53;;;;;;;0.40;0.40;;;;;;;;;;4498009;28;20057;-60
2023/03/07 05:24:04;;;;;;;0.40;0.40;;;;;;;;;;4484804;28;21222;-60
2023/03/07 05:26:15;;;;;;;0.40;0.40;;;;;;;;;;4501393;28;20629;-60
2023/03/07 05:28:26;;;;;;;0.40;0.40;;;;;;;;;;4499506;28;20702;-61
2023/03/07 05:30:36;;;;;;;0.40;0.40;;;;;;;;;;4502052;28;20120;-61
2023/03/07 05:32:46;;;;;;;0.40;0.40;;;;;;;;;;4497692;28;20022;-60
2023/03/07 05:34:58;;;;;;;0.30;0.30;;;;;;;;;;4500581;28;20042;-61
2023/03/07 05:37:09;;;;;;;0.30;0.30;;;;;;;;;;4500243;28;20025;-60
2023/03/07 05:39:19;;;;;;;0.40;0.40;;;;;;;;;;4498070;28;20128;-61
2023/03/07 05:41:30;;;;;;;0.40;0.40;;;;;;;;;;4499022;28;20495;-61
2023/03/07 05:43:40;;;;;;;0.40;0.40;;;;;;;;;;4499138;28;20038;-61
2023/03/07 05:45:50;;;;;;;0.40;0.40;;;;;;;;;;4497475;28;20050;-60
2023/03/07 05:48:01;;;;;;;0.40;0.40;;;;;;;;;;4500247;28;20038;-61
2023/03/07 05:50:12;;;;;;;0.40;0.40;;;;;;;;;;4499259;28;20038;-61
2023/03/07 05:52:23;;;;;;;0.32;0.32;;;;;;;;;;4495992;28;21032;-60
2023/03/07 05:54:34;;;;;;;0.40;0.40;;;;;;;;;;4504647;28;20042;-61
2023/03/07 05:56:44;;;;;;;0.40;0.40;;;;;;;;;;4500443;28;20125;-61
2023/03/07 05:58:54;;;;;;;0.40;0.40;;;;;;;;;;4499485;28;20927;-61
2023/03/07 06:01:05;;;;;;;0.43;0.43;;;;;;;;;;4496334;28;20550;-60
2023/03/07 06:03:16;;;;;;;0.50;0.50;;;;;;;;;;4499729;28;20454;-61
2023/03/07 06:05:26;;;;;;;0.47;0.47;;;;;;;;;;4487465;28;20038;-61
2023/03/07 06:07:37;;;;;;;0.60;0.60;;;;;;;;;;4499794;28;20509;-61
2023/03/07 06:09:47;;;;;;;0.68;0.55;;;;;;;;;;4500053;28;20517;-61
2023/03/07 06:11:58;;;;;;;0.60;0.60;;;;;;;;;;4499815;28;20509;-61
2023/03/07 06:14:08;;;;;;;0.70;0.70;;;;;;;;;;4499468;28;20045;-61
2023/03/07 06:16:18;;;;;;;0.60;0.60;;;;;;;;;;4495399;28;20124;-61
2023/03/07 06:18:29;;;;;;;0.60;0.60;;;;;;;;;;4495685;28;20042;-61
2023/03/07 06:20:39;;;;;;;0.60;0.60;;;;;;;;;;4498010;28;20058;-61
2023/03/07 06:22:49;;;;;;;0.60;0.60;;;;;;;;;;4498309;28;21657;-60
2023/03/07 06:25:00;;;;;;;0.65;0.65;;;;;;;;;;4498337;28;20022;-61
2023/03/07 06:27:10;;;;;;;0.60;0.60;;;;;;;;;;4498730;28;21445;-61
2023/03/07 06:29:21;;;;;;;0.70;0.70;;;;;;;;;;4487157;28;20049;-61
2023/03/07 06:31:31;;;;;;;0.70;0.70;;;;;;;;;;4497950;28;20050;-61
2023/03/07 06:33:42;;;;;;;0.70;0.70;;;;;;;;;;4479533;28;20085;-61
2023/03/07 06:35:53;;;;;;;0.65;0.65;;;;;;;;;;4500373;28;20165;-61
2023/03/07 06:38:04;;;;;;;0.70;0.70;;;;;;;;;;4496556;28;20313;-60
2023/03/07 06:40:14;;;;;;;0.80;0.80;;;;;;;;;;4496738;28;20133;-61
2023/03/07 06:42:25;;;;;;;1.20;1.10;;;;;;;;;;4512907;28;20040;-61
2023/03/07 06:44:35;;;;;;;1.40;1.30;;;;;;;;;;4499233;28;20045;-63
2023/03/07 06:46:46;;;;;;;0.90;0.90;;;;;;;;;;4489001;28;20080;-62
2023/03/07 06:48:59;;;;;;;0.80;0.80;;;;;;;;;;4500692;28;20052;-60
2023/03/07 06:51:10;;;;;;;0.80;0.80;;;;;;;;;;4499340;28;20479;-61
2023/03/07 06:53:22;;;;;;;0.85;0.85;;;;;;;;;;4494954;28;20346;-61
2023/03/07 06:55:33;;;;;;;0.70;0.70;;;;;;;;;;4500409;28;20037;-61
2023/03/07 06:57:43;;;;;;;0.70;0.70;;;;;;;;;;4495710;28;20038;-61
2023/03/07 06:59:54;;;;;;;0.80;0.80;;;;;;;;;;4501158;28;20042;-62
2023/03/07 07:02:04;;;;;;;0.80;0.75;;;;;;;;;;4501002;28;20090;-61
2023/03/07 07:04:16;;;;;;;0.75;0.75;;;;;;;;;;4502062;28;20097;-60
2023/03/07 07:06:27;;;;;;;0.60;0.60;;;;;;;;;;4512991;28;20108;-61
2023/03/07 07:08:37;;;;;;;0.70;0.70;;;;;;;;;;4501029;28;20445;-61
2023/03/07 07:10:47;;;;;;;0.68;0.68;;;;;;;;;;4486546;28;20045;-62
2023/03/07 07:12:58;;;;;;;0.70;0.70;;;;;;;;;;4502916;28;20060;-62
2023/03/07 07:15:10;;;;;;;0.73;0.73;;;;;;;;;;4500047;28;20978;-61
2023/03/07 07:17:20;;;;;;;0.60;0.60;;;;;;;;;;4497354;28;20133;-62
2023/03/07 07:19:31;;;;;;;0.70;0.70;;;;;;;;;;4489012;28;20039;-64
2023/03/07 07:21:42;;;;;;;0.80;0.80;;;;;;;;;;4501830;28;20646;-59
2023/03/07 07:23:54;;;;;;;0.63;0.63;;;;;;;;;;4501479;28;20033;-60
2023/03/07 07:26:04;;;;;;;0.70;0.70;;;;;;;;;;4500249;28;20526;-60
2023/03/07 07:28:16;;;;;;;0.60;0.60;;;;;;;;;;4501357;28;20165;-61
2023/03/07 07:30:26;;;;;;;0.60;0.60;;;;;;;;;;4498766;28;20038;-60
2023/03/07 07:32:37;;;;;;;0.70;0.70;;;;;;;;;;4503064;28;21103;-59
2023/03/07 07:34:48;;;;;;;0.75;0.75;;;;;;;;;;4501643;28;20149;-60
2023/03/07 07:36:58;;;;;;;0.60;0.60;;;;;;;;;;4505906;28;20045;-60
2023/03/07 07:39:10;;;;;;;0.60;0.60;;;;;;;;;;4500208;28;20049;-60
2023/03/07 07:41:22;;;;;;;0.60;0.60;;;;;;;;;;4500189;28;20045;-60
2023/03/07 07:43:35;;;;;;;0.60;0.60;;;;;;;;;;4501394;28;21333;-60
2023/03/07 07:46:01;;;;;;;0.60;0.60;;;;;;;;;;4503080;28;20624;-60
2023/03/07 07:48:11;;;;;;;0.70;0.70;;;;;;;;;;4499988;28;20038;-60
2023/03/07 07:50:22;;;;;;;0.70;0.70;;;;;;;;;;4483782;28;20034;-60
2023/03/07 07:52:33;;;;;;;0.60;0.60;;;;;;;;;;4506370;28;20034;-60
2023/03/07 07:54:43;;;;;;;0.60;0.60;;;;;;;;;;4509761;28;20049;-61
2023/03/07 07:56:56;;;;;;;0.50;0.50;;;;;;;;;;4500100;28;20026;-61
2023/03/07 07:59:07;;;;;;;0.50;0.50;;;;;;;;;;4504714;28;20076;-60
2023/03/07 08:01:21;;;;;;;0.45;0.45;;;;;;;;;;4489290;28;20153;-60
2023/03/07 08:03:31;;;;;;;0.60;0.60;;;;;;;;;;4495408;28;20668;-59
2023/03/07 08:05:47;;;;;;;0.50;0.50;;;;;;;;;;4499679;28;20050;-60
2023/03/07 08:07:57;;;;;;;0.50;0.50;;;;;;;;;;4497877;28;20100;-61
2023/03/07 08:10:08;;;;;;;0.60;0.60;;;;;;;;;;4484655;28;20129;-60
2023/03/07 08:12:18;;;;;;;0.50;0.50;;;;;;;;;;4495605;28;20567;-60
2023/03/07 08:14:28;;;;;;;0.50;0.50;;;;;;;;;;4497049;28;20053;-60
2023/03/07 08:16:39;;;;;;;0.55;0.55;;;;;;;;;;4498613;28;20045;-60
2023/03/07 08:18:51;;;;;;;0.80;0.80;;;;;;;;;;4497173;28;20091;-60
2023/03/07 08:21:01;;;;;;;0.60;0.60;;;;;;;;;;4496765;28;20022;-60
2023/03/07 08:23:11;;;;;;;0.60;0.60;;;;;;;;;;4500317;28;20037;-60
2023/03/07 08:25:23;;;;;;;0.60;0.60;;;;;;;;;;4486377;28;20042;-59
2023/03/07 08:27:33;;;;;;;0.88;0.80;;;;;;;;;;4495980;28;20047;-60
2023/03/07 08:29:47;;;;;;;0.70;0.70;;;;;;;;;;4482720;28;20038;-59
2023/03/07 08:31:57;;;;;;;0.60;0.60;;;;;;;;;;4499202;28;20882;-60
2023/03/07 08:34:07;;;;;;;0.70;0.70;;;;;;;;;;4496755;28;20042;-60
2023/03/07 08:36:18;;;;;;;0.70;0.70;;;;;;;;;;4500718;28;21522;-60
2023/03/07 08:38:28;;;;;;;0.80;0.60;;;;;;;;;;4486449;28;20208;-60
2023/03/07 08:40:39;;;;;;;0.50;0.50;;;;;;;;;;4496755;28;20053;-60
2023/03/07 08:42:49;;;;;;;0.60;0.60;;;;;;;;;;4496216;28;20488;-60
2023/03/07 08:44:59;;;;;;;0.50;0.50;;;;;;;;;;4495579;28;20029;-60
2023/03/07 08:47:12;;;;;;;0.60;0.60;;;;;;;;;;4498627;28;20097;-60
2023/03/07 08:49:22;;;;;;;0.55;0.55;;;;;;;;;;4497595;28;20583;-59
2023/03/07 08:51:33;;;;;;;0.40;0.40;;;;;;;;;;4497993;28;20052;-60
2023/03/07 08:53:44;;;;;;;0.40;0.40;;;;;;;;;;4496356;28;20720;-59
2023/03/07 08:55:55;;;;;;;0.40;0.40;;;;;;;;;;4496711;28;20046;-60
2023/03/07 08:58:05;;;;;;;0.30;0.30;;;;;;;;;;4498574;28;20030;-60
2023/03/07 09:00:16;;;;;;;0.40;0.40;;;;;;;;;;4498138;28;20037;-60
2023/03/07 09:02:27;;;;;;;0.30;0.30;;;;;;;;;;4495585;28;20621;-63
2023/03/07 09:04:37;;;;;;;0.25;0.25;;;;;;;;;;4497630;28;20077;-62
2023/03/07 09:06:48;;;;;;;0.20;0.20;;;;;;;;;;4498171;28;20562;-63
2023/03/07 09:08:58;;;;;;;0.20;0.20;;;;;;;;;;4474266;28;20044;-61
2023/03/07 09:11:09;;;;;;;0.30;0.30;;;;;;;;;;4496446;28;20034;-61
2023/03/07 09:13:19;;;;;;;0.22;0.22;;;;;;;;;;4482097;28;20086;-62
2023/03/07 09:15:29;;;;;;;0.22;0.22;;;;;;;;;;4497376;28;20141;-61
2023/03/07 09:17:40;;;;;;;0.30;0.30;;;;;;;;;;4497283;28;20039;-61
2023/03/07 09:19:50;;;;;;;0.30;0.30;;;;;;;;;;4499178;28;20542;-62
2023/03/07 09:22:00;;;;;;;0.20;0.20;;;;;;;;;;4497365;28;20041;-61
2023/03/07 09:24:10;;;;;;;0.30;0.30;;;;;;;;;;4497450;28;20311;-59
2023/03/07 09:26:21;;;;;;;0.20;0.20;;;;;;;;;;4496390;28;20095;-60
2023/03/07 09:28:31;;;;;;;0.30;0.30;;;;;;;;;;4496619;28;20605;-61
2023/03/07 09:30:41;;;;;;;0.30;0.30;;;;;;;;;;4497037;28;20041;-59
2023/03/07 09:32:52;;;;;;;0.52;0.40;;;;;;;;;;4494720;28;20042;-58
2023/03/07 09:35:02;;;;;;;0.38;0.30;;;;;;;;;;4495190;28;20042;-57
2023/03/07 09:37:13;;;;;;;0.30;0.30;;;;;;;;;;4497247;28;20026;-61
2023/03/07 09:39:23;;;;;;;0.20;0.20;;;;;;;;;;4494148;28;20053;-60
2023/03/07 09:41:39;;;;;;;0.40;0.40;;;;;;;;;;4501759;28;20045;-60
2023/03/07 09:44:04;;;;;;;0.28;0.28;;;;;;;;;;4493936;28;20042;-60
2023/03/07 09:47:02;;;;;;;0.30;0.30;;;;;;;;;;4487832;28;20564;-59
2023/03/07 09:49:22;;;;;;;0.30;0.30;;;;;;;;;;4498642;28;20596;-60
2023/03/07 09:51:40;;;;;;;0.20;0.20;;;;;;;;;;4503182;28;20131;-61
2023/03/07 09:53:53;;;;;;;0.30;0.30;;;;;;;;;;4496803;28;20145;-60
2023/03/07 09:56:10;;;;;;;0.30;0.30;;;;;;;;;;4486431;28;20566;-61
2023/03/07 09:58:22;;;;;;;0.30;0.30;;;;;;;;;;4487664;28;20033;-60
2023/03/07 10:00:39;;;;;;;0.35;0.35;;;;;;;;;;4497989;28;20037;-61
2023/03/07 10:03:06;;;;;;;0.40;0.40;;;;;;;;;;4497330;28;20047;-61
2023/03/07 10:05:16;;;;;;;;;;;;;;;;;;4497593;28;20075;-62
2023/03/07 10:07:28;;;;;;;0.45;0.45;;;;;;;;;;4495692;28;19924;-61
2023/03/07 10:09:39;;;;;;;0.40;0.40;;;;;;;;;;4497340;28;20120;-60
2023/03/07 10:12:19;;;;;;;0.50;0.50;;;;;;;;;;4495488;28;20157;-60
2023/03/07 10:14:44;;;;;;;0.40;0.40;;;;;;;;;;4485453;28;20042;-60
2023/03/07 10:17:13;;;;;;;0.50;0.50;;;;;;;;;;4495643;28;20046;-61
2023/03/07 10:19:28;;;;;;;0.50;0.50;;;;;;;;;;4499778;28;20038;-60
2023/03/07 10:21:43;;;;;;;1.85;1.75;;;;;;;;;;4500216;28;20021;-60
2023/03/07 10:24:20;;;;;;;1.83;1.73;;;;;;;;;;4500273;28;20578;-60
2023/03/07 10:26:46;;;;;;;1.40;1.30;;;;;;;;;;4470483;28;21466;-61
2023/03/07 10:28:58;;;;;;;0.73;0.73;;;;;;;;;;4505982;28;20181;-60
2023/03/07 10:31:15;;;;;;;0.70;0.70;;;;;;;;;;4498554;28;20052;-60
2023/03/07 10:33:26;;;;;;;0.50;0.50;;;;;;;;;;4488862;28;20049;-61
2023/03/07 10:35:41;;;;;;;0.85;0.85;;;;;;;;;;4483807;28;21375;-59
2023/03/07 10:38:04;;;;;;;1.20;1.10;;;;;;;;;;4497905;28;20030;-59
2023/03/07 10:40:16;;;;;;;2.10;1.90;;;;;;;;;;4497507;28;20041;-59
2023/03/07 10:42:31;;;;;;;3.28;2.58;;;;;;;;;;4497762;28;20572;-59
2023/03/07 10:44:44;;;;;;;2.30;2.10;;;;;;;;;;4500450;28;20042;-59
2023/03/07 10:46:56;;;;;;;4.00;3.60;;;;;;;;;;4496138;28;20504;-60
2023/03/07 10:49:11;;;;;;;3.20;2.70;;;;;;;;;;4498687;28;20632;-62
2023/03/07 10:51:22;;;;;;;4.28;3.88;;;;;;;;;;4499409;28;20134;-61
2023/03/07 10:53:34;;;;;;;5.00;4.50;;;;;;;;;;4498295;28;20109;-61
2023/03/07 10:55:45;;;;;;;6.00;4.70;;;;;;;;;;4496612;28;20045;-59
2023/03/07 10:58:11;;;;;;;5.55;5.05;;;;;;;;;;4498828;28;20131;-60
2023/03/07 11:00:21;;;;;;;4.50;4.07;;;;;;;;;;4498598;28;20044;-59
2023/03/07 11:02:35;;;;;;;5.57;5.07;;;;;;;;;;4497050;28;20560;-58
2023/03/07 11:04:45;;;;;;;2.83;2.63;;;;;;;;;;4500068;28;20041;-59
2023/03/07 11:06:57;;;;;;;3.20;2.90;;;;;;;;;;4498259;28;20057;-59
2023/03/07 11:09:26;;;;;;;2.50;2.30;;;;;;;;;;4500181;28;20076;-58
2023/03/07 11:11:37;;;;;;;6.50;5.90;;;;;;;;;;4488440;28;20065;-59
2023/03/07 11:14:03;;;;;;;7.05;6.43;;;;;;;;;;4497726;28;20036;-59
2023/03/07 11:16:13;;;;;;;6.95;6.35;;;;;;;;;;4497729;28;20592;-60
2023/03/07 11:18:35;;;;;;;6.90;6.18;;;;;;;;;;4497901;28;20045;-61
2023/03/07 11:20:49;;;;;;;7.53;6.70;;;;;;;;;;4499587;28;20026;-58
2023/03/07 11:23:15;;;;;;;7.55;6.85;;;;;;;;;;4496018;28;20038;-61
2023/03/07 11:25:26;;;;;;;7.85;7.13;;;;;;;;;;4500397;28;20128;-60
2023/03/07 11:27:47;;;;;;;4.50;4.10;;;;;;;;;;4496494;28;20064;-59
2023/03/07 11:30:24;;;;;;;8.57;7.65;;;;;;;;;;4498969;28;20914;-59
2023/03/07 11:32:36;;;;;;;8.95;8.10;;;;;;;;;;4498945;28;20066;-59
2023/03/07 11:34:58;;;;;;;9.70;8.80;;;;;;;;;;4496583;28;20034;-60
2023/03/07 11:37:29;;;;;;;9.75;8.80;;;;;;;;;;4496371;28;20046;-60
2023/03/07 11:39:59;;;;;;;9.48;8.60;;;;;;;;;;4480087;28;20049;-60
2023/03/07 11:42:21;;;;;;;9.38;8.57;;;;;;;;;;4497685;28;20050;-59
2023/03/07 11:44:34;;;;;;;10.10;9.20;;;;;;;;;;4497942;28;20042;-60
2023/03/07 11:46:47;;;;;;;9.88;8.98;;;;;;;;;;4486660;28;20605;-59
2023/03/07 11:49:17;;;;;;;10.27;9.27;;;;;;;;;;4498880;28;20111;-60
2023/03/07 11:51:27;;;;;;;9.95;9.05;;;;;;;;;;4501546;28;20410;-59
2023/03/07 11:53:42;;;;;;;1.42;1.33;;;;;;;;;;4497651;28;20690;-60
2023/03/07 11:55:55;;;;;;;2.45;2.25;;;;;;;;;;4500065;28;20039;-60
2023/03/07 11:58:24;;;;;;;3.35;3.05;;;;;;;;;;4498246;28;20600;-58
2023/03/07 12:00:53;;;;;;;1.55;1.45;;;;;;;;;;4498698;28;20034;-60
2023/03/07 12:03:22;;;;;;;1.50;1.40;;;;;;;;;;4497217;28;20576;-61
2023/03/07 12:05:39;;;;;;;1.35;1.25;;;;;;;;;;4488171;28;20043;-60
2023/03/07 12:07:49;;;;;;;;;;;;;;;;;;4500043;28;20617;-61
2023/03/07 12:10:02;;;;;;;0.90;0.90;;;;;;;;;;4501410;28;19928;-58
2023/03/07 12:12:32;;;;;;;0.90;0.90;;;;;;;;;;4488849;28;20797;-59
2023/03/07 12:15:03;;;;;;;0.80;0.80;;;;;;;;;;4496217;28;20165;-59
2023/03/07 12:17:36;;;;;;;0.90;0.90;;;;;;;;;;4498032;28;20113;-60
2023/03/07 12:19:56;;;;;;;0.80;0.77;;;;;;;;;;4468572;28;20088;-60
2023/03/07 12:22:14;;;;;;;0.50;0.50;;;;;;;;;;4498736;28;20034;-60
2023/03/07 12:24:27;;;;;;;0.60;0.60;;;;;;;;;;4498046;28;20482;-60
2023/03/07 12:27:03;;;;;;;0.52;0.52;;;;;;;;;;4498704;28;20046;-60
2023/03/07 12:29:33;;;;;;;1.00;1.00;;;;;;;;;;4494320;28;20134;-60
2023/03/07 12:31:45;;;;;;;0.80;0.80;;;;;;;;;;4495267;28;20025;-59
2023/03/07 12:34:13;;;;;;;0.77;0.77;;;;;;;;;;4500229;28;20616;-60
2023/03/07 12:36:42;;;;;;;0.70;0.70;;;;;;;;;;4498766;28;20105;-60
2023/03/07 12:38:55;;;;;;;0.70;0.70;;;;;;;;;;4499979;28;20775;-60
2023/03/07 12:41:24;;;;;;;0.60;0.60;;;;;;;;;;4499992;28;20914;-60
2023/03/07 12:43:41;;;;;;;0.80;0.80;;;;;;;;;;4496831;28;21236;-60
2023/03/07 12:46:10;;;;;;;0.60;0.60;;;;;;;;;;4497413;28;20489;-59
2023/03/07 12:48:28;;;;;;;0.52;0.52;;;;;;;;;;4486520;28;21127;-59
2023/03/07 12:50:51;;;;;;;0.60;0.60;;;;;;;;;;4495850;28;20737;-59
2023/03/07 12:53:21;;;;;;;0.70;0.70;;;;;;;;;;4495558;28;20601;-59
2023/03/07 12:55:35;;;;;;;0.70;0.70;;;;;;;;;;4498151;28;20573;-60
2023/03/07 12:57:58;;;;;;;0.88;0.88;;;;;;;;;;4496915;28;20076;-60
2023/03/07 13:00:10;;;;;;;1.13;1.02;;;;;;;;;;4513097;28;20044;-60
2023/03/07 13:02:23;;;;;;;0.90;0.90;;;;;;;;;;4484334;28;20153;-60
2023/03/07 13:04:35;;;;;;;0.70;0.70;;;;;;;;;;4496685;28;20640;-60
2023/03/07 13:06:45;;;;;;;0.75;0.75;;;;;;;;;;4501571;28;20038;-60
2023/03/07 13:09:02;;;;;;;0.60;0.60;;;;;;;;;;4496056;28;20042;-60
2023/03/07 13:11:21;;;;;;;0.50;0.50;;;;;;;;;;4497691;28;20069;-60
2023/03/07 13:13:43;;;;;;;0.52;0.52;;;;;;;;;;4494384;28;20041;-60
2023/03/07 13:16:01;;;;;;;0.55;0.55;;;;;;;;;;4498468;28;20037;-60
2023/03/07 13:18:25;;;;;;;0.80;0.80;;;;;;;;;;4498182;28;21236;-60
2023/03/07 13:20:37;;;;;;;0.73;0.73;;;;;;;;;;4497222;28;20233;-59